sensor_id;sensor_type;location;lat;lon;timestamp;P1;durP1;ratioP1;P2;durP2;ratioP2
67231;SDS011;54145;49.798;-97.162;2022-10-31T00:00:24;3.10;;;0.85;;
67231;SDS011;54145;49.798;-97.162;2022-10-31T00:02:25;0.50;;;0.50;;
67231;SDS011;54145;49.798;-97.162;2022-10-31T00:04:25;0.97;;;0.63;;
67231;SDS011;54145;49.798;-97.162;2022-10-31T00:06:26;0.73;;;0.70;;
67231;SDS011;54145;49.798;-97.162;2022-10-31T00:08:27;1.63;;;0.80;;
67231;SDS011;54145;49.798;-97.162;2022-10-31T00:10:32;0.75;;;0.68;;
67231;SDS011;54145;49.798;-97.162;2022-10-31T00:12:34;0.95;;;0.60;;
67231;SDS011;54145;49.798;-97.162;2022-10-31T00:14:35;0.70;;;0.60;;
67231;SDS011;54145;49.798;-97.162;2022-10-31T00:16:36;0.57;;;0.47;;
67231;SDS011;54145;49.798;-97.162;2022-10-31T00:18:37;0.80;;;0.70;;
67231;SDS011;54145;49.798;-97.162;2022-10-31T00:20:40;1.17;;;0.60;;
67231;SDS011;54145;49.798;-97.162;2022-10-31T00:22:41;0.57;;;0.57;;
67231;SDS011;54145;49.798;-97.162;2022-10-31T00:24:43;0.55;;;0.55;;
67231;SDS011;54145;49.798;-97.162;2022-10-31T00:26:44;0.50;;;0.50;;
67231;SDS011;54145;49.798;-97.162;2022-10-31T00:28:45;0.60;;;0.60;;
67231;SDS011;54145;49.798;-97.162;2022-10-31T00:30:46;0.60;;;0.60;;
67231;SDS011;54145;49.798;-97.162;2022-10-31T00:32:48;0.50;;;0.50;;
67231;SDS011;54145;49.798;-97.162;2022-10-31T00:34:49;0.85;;;0.50;;
67231;SDS011;54145;49.798;-97.162;2022-10-31T00:36:49;0.70;;;0.60;;
67231;SDS011;54145;49.798;-97.162;2022-10-31T00:38:50;0.60;;;0.60;;
67231;SDS011;54145;49.798;-97.162;2022-10-31T00:40:51;0.57;;;0.40;;
67231;SDS011;54145;49.798;-97.162;2022-10-31T00:42:52;0.52;;;0.52;;
67231;SDS011;54145;49.798;-97.162;2022-10-31T00:44:53;0.40;;;0.40;;
67231;SDS011;54145;49.798;-97.162;2022-10-31T00:46:54;0.73;;;0.50;;
67231;SDS011;54145;49.798;-97.162;2022-10-31T00:48:55;0.65;;;0.60;;
67231;SDS011;54145;49.798;-97.162;2022-10-31T00:50:56;0.50;;;0.50;;
67231;SDS011;54145;49.798;-97.162;2022-10-31T00:52:57;0.40;;;0.40;;
67231;SDS011;54145;49.798;-97.162;2022-10-31T00:54:59;0.40;;;0.40;;
67231;SDS011;54145;49.798;-97.162;2022-10-31T00:59:00;0.50;;;0.50;;
67231;SDS011;54145;49.798;-97.162;2022-10-31T01:01:01;0.47;;;0.47;;
67231;SDS011;54145;49.798;-97.162;2022-10-31T01:03:02;0.83;;;0.70;;
67231;SDS011;54145;49.798;-97.162;2022-10-31T01:05:10;0.40;;;0.40;;
67231;SDS011;54145;49.798;-97.162;2022-10-31T01:07:10;0.40;;;0.40;;
67231;SDS011;54145;49.798;-97.162;2022-10-31T01:09:14;0.50;;;0.50;;
67231;SDS011;54145;49.798;-97.162;2022-10-31T01:11:19;0.40;;;0.40;;
67231;SDS011;54145;49.798;-97.162;2022-10-31T01:13:20;0.43;;;0.43;;
67231;SDS011;54145;49.798;-97.162;2022-10-31T01:15:21;0.50;;;0.50;;
67231;SDS011;54145;49.798;-97.162;2022-10-31T01:17:22;0.45;;;0.45;;
67231;SDS011;54145;49.798;-97.162;2022-10-31T01:19:23;0.40;;;0.40;;
67231;SDS011;54145;49.798;-97.162;2022-10-31T01:21:26;0.50;;;0.50;;
67231;SDS011;54145;49.798;-97.162;2022-10-31T01:23:27;1.95;;;0.43;;
67231;SDS011;54145;49.798;-97.162;2022-10-31T01:25:28;0.50;;;0.50;;
67231;SDS011;54145;49.798;-97.162;2022-10-31T01:27:29;0.50;;;0.50;;
67231;SDS011;54145;49.798;-97.162;2022-10-31T01:29:33;0.30;;;0.30;;
67231;SDS011;54145;49.798;-97.162;2022-10-31T01:31:35;0.50;;;0.50;;
67231;SDS011;54145;49.798;-97.162;2022-10-31T01:33:36;0.47;;;0.47;;
67231;SDS011;54145;49.798;-97.162;2022-10-31T01:35:37;3.28;;;0.45;;
67231;SDS011;54145;49.798;-97.162;2022-10-31T01:37:38;0.47;;;0.40;;
67231;SDS011;54145;49.798;-97.162;2022-10-31T01:39:39;0.50;;;0.43;;
67231;SDS011;54145;49.798;-97.162;2022-10-31T01:41:49;1.08;;;0.60;;
67231;SDS011;54145;49.798;-97.162;2022-10-31T01:43:54;0.40;;;0.40;;
67231;SDS011;54145;49.798;-97.162;2022-10-31T01:45:56;0.50;;;0.50;;
67231;SDS011;54145;49.798;-97.162;2022-10-31T01:47:56;0.40;;;0.40;;
67231;SDS011;54145;49.798;-97.162;2022-10-31T01:49:58;1.27;;;0.43;;
67231;SDS011;54145;49.798;-97.162;2022-10-31T01:54:09;0.30;;;0.30;;
67231;SDS011;54145;49.798;-97.162;2022-10-31T01:56:12;1.05;;;0.38;;
67231;SDS011;54145;49.798;-97.162;2022-10-31T01:58:14;0.40;;;0.40;;
67231;SDS011;54145;49.798;-97.162;2022-10-31T02:00:17;0.40;;;0.40;;
67231;SDS011;54145;49.798;-97.162;2022-10-31T02:02:19;0.30;;;0.30;;
67231;SDS011;54145;49.798;-97.162;2022-10-31T02:04:20;0.20;;;0.20;;
67231;SDS011;54145;49.798;-97.162;2022-10-31T02:08:38;2.28;;;0.30;;
67231;SDS011;54145;49.798;-97.162;2022-10-31T02:10:39;0.25;;;0.25;;
67231;SDS011;54145;49.798;-97.162;2022-10-31T02:12:40;0.37;;;0.30;;
67231;SDS011;54145;49.798;-97.162;2022-10-31T02:14:41;0.30;;;0.30;;
67231;SDS011;54145;49.798;-97.162;2022-10-31T02:16:45;0.30;;;0.30;;
67231;SDS011;54145;49.798;-97.162;2022-10-31T02:18:46;0.20;;;0.20;;
67231;SDS011;54145;49.798;-97.162;2022-10-31T02:33:58;0.30;;;0.30;;
67231;SDS011;54145;49.798;-97.162;2022-10-31T02:36:04;0.28;;;0.28;;
67231;SDS011;54145;49.798;-97.162;2022-10-31T02:42:22;0.30;;;0.30;;
67231;SDS011;54145;49.798;-97.162;2022-10-31T02:44:35;0.30;;;0.30;;
67231;SDS011;54145;49.798;-97.162;2022-10-31T02:48:44;0.30;;;0.30;;
67231;SDS011;54145;49.798;-97.162;2022-10-31T02:50:52;0.28;;;0.25;;
67231;SDS011;54145;49.798;-97.162;2022-10-31T02:52:55;0.35;;;0.30;;
67231;SDS011;54145;49.798;-97.162;2022-10-31T02:54:56;0.20;;;0.20;;
67231;SDS011;54145;49.798;-97.162;2022-10-31T02:57:01;0.40;;;0.40;;
67231;SDS011;54145;49.798;-97.162;2022-10-31T02:59:03;0.20;;;0.20;;
67231;SDS011;54145;49.798;-97.162;2022-10-31T03:01:19;0.15;;;0.15;;
67231;SDS011;54145;49.798;-97.162;2022-10-31T03:05:45;0.25;;;0.25;;
67231;SDS011;54145;49.798;-97.162;2022-10-31T03:12:08;0.20;;;0.20;;
67231;SDS011;54145;49.798;-97.162;2022-10-31T03:14:19;2.00;;;0.25;;
67231;SDS011;54145;49.798;-97.162;2022-10-31T03:16:29;0.20;;;0.20;;
67231;SDS011;54145;49.798;-97.162;2022-10-31T03:18:48;0.20;;;0.17;;
67231;SDS011;54145;49.798;-97.162;2022-10-31T03:21:01;0.20;;;0.20;;
67231;SDS011;54145;49.798;-97.162;2022-10-31T03:23:06;0.10;;;0.10;;
67231;SDS011;54145;49.798;-97.162;2022-10-31T03:25:08;0.20;;;0.20;;
67231;SDS011;54145;49.798;-97.162;2022-10-31T03:27:09;0.30;;;0.30;;
67231;SDS011;54145;49.798;-97.162;2022-10-31T03:31:12;0.95;;;0.25;;
67231;SDS011;54145;49.798;-97.162;2022-10-31T03:33:16;0.30;;;0.30;;
67231;SDS011;54145;49.798;-97.162;2022-10-31T03:35:18;0.20;;;0.20;;
67231;SDS011;54145;49.798;-97.162;2022-10-31T03:37:20;0.30;;;0.30;;
67231;SDS011;54145;49.798;-97.162;2022-10-31T03:39:23;0.20;;;0.20;;
67231;SDS011;54145;49.798;-97.162;2022-10-31T03:41:27;0.10;;;0.10;;
67231;SDS011;54145;49.798;-97.162;2022-10-31T03:43:30;0.20;;;0.20;;
67231;SDS011;54145;49.798;-97.162;2022-10-31T03:45:32;0.60;;;0.52;;
67231;SDS011;54145;49.798;-97.162;2022-10-31T03:47:36;1.13;;;0.40;;
67231;SDS011;54145;49.798;-97.162;2022-10-31T03:49:37;0.57;;;0.40;;
67231;SDS011;54145;49.798;-97.162;2022-10-31T03:55:47;0.28;;;0.28;;
67231;SDS011;54145;49.798;-97.162;2022-10-31T03:59:58;0.25;;;0.25;;
67231;SDS011;54145;49.798;-97.162;2022-10-31T04:02:02;0.55;;;0.30;;
67231;SDS011;54145;49.798;-97.162;2022-10-31T04:04:04;1.33;;;0.32;;
67231;SDS011;54145;49.798;-97.162;2022-10-31T04:06:06;0.10;;;0.10;;
67231;SDS011;54145;49.798;-97.162;2022-10-31T04:08:09;0.65;;;0.25;;
67231;SDS011;54145;49.798;-97.162;2022-10-31T04:10:13;0.20;;;0.20;;
67231;SDS011;54145;49.798;-97.162;2022-10-31T04:12:15;0.13;;;0.13;;
67231;SDS011;54145;49.798;-97.162;2022-10-31T04:14:16;0.43;;;0.43;;
67231;SDS011;54145;49.798;-97.162;2022-10-31T04:16:17;0.30;;;0.30;;
67231;SDS011;54145;49.798;-97.162;2022-10-31T04:18:18;0.88;;;0.38;;
67231;SDS011;54145;49.798;-97.162;2022-10-31T04:20:35;0.40;;;0.28;;
67231;SDS011;54145;49.798;-97.162;2022-10-31T04:22:36;0.20;;;0.20;;
67231;SDS011;54145;49.798;-97.162;2022-10-31T04:24:38;0.28;;;0.28;;
67231;SDS011;54145;49.798;-97.162;2022-10-31T04:26:39;0.73;;;0.20;;
67231;SDS011;54145;49.798;-97.162;2022-10-31T04:28:40;0.20;;;0.20;;
67231;SDS011;54145;49.798;-97.162;2022-10-31T04:30:41;0.75;;;0.20;;
67231;SDS011;54145;49.798;-97.162;2022-10-31T04:32:42;0.47;;;0.20;;
67231;SDS011;54145;49.798;-97.162;2022-10-31T04:34:43;0.80;;;0.30;;
67231;SDS011;54145;49.798;-97.162;2022-10-31T04:36:44;0.20;;;0.20;;
67231;SDS011;54145;49.798;-97.162;2022-10-31T04:38:45;0.50;;;0.30;;
67231;SDS011;54145;49.798;-97.162;2022-10-31T04:40:46;0.55;;;0.30;;
67231;SDS011;54145;49.798;-97.162;2022-10-31T04:42:49;0.22;;;0.17;;
67231;SDS011;54145;49.798;-97.162;2022-10-31T04:44:50;0.35;;;0.30;;
67231;SDS011;54145;49.798;-97.162;2022-10-31T04:46:50;0.40;;;0.28;;
67231;SDS011;54145;49.798;-97.162;2022-10-31T04:48:51;0.23;;;0.23;;
67231;SDS011;54145;49.798;-97.162;2022-10-31T04:50:52;0.30;;;0.17;;
67231;SDS011;54145;49.798;-97.162;2022-10-31T04:52:53;2.07;;;0.40;;
67231;SDS011;54145;49.798;-97.162;2022-10-31T04:54:54;0.77;;;0.40;;
67231;SDS011;54145;49.798;-97.162;2022-10-31T04:56:54;0.40;;;0.20;;
67231;SDS011;54145;49.798;-97.162;2022-10-31T04:58:55;0.60;;;0.32;;
67231;SDS011;54145;49.798;-97.162;2022-10-31T05:00:56;0.28;;;0.28;;
67231;SDS011;54145;49.798;-97.162;2022-10-31T05:03:00;0.63;;;0.35;;
67231;SDS011;54145;49.798;-97.162;2022-10-31T05:05:01;0.23;;;0.17;;
67231;SDS011;54145;49.798;-97.162;2022-10-31T05:07:03;0.43;;;0.25;;
67231;SDS011;54145;49.798;-97.162;2022-10-31T05:09:04;0.75;;;0.50;;
67231;SDS011;54145;49.798;-97.162;2022-10-31T05:11:08;1.30;;;0.32;;
67231;SDS011;54145;49.798;-97.162;2022-10-31T05:13:11;0.20;;;0.20;;
67231;SDS011;54145;49.798;-97.162;2022-10-31T05:15:16;0.20;;;0.20;;
67231;SDS011;54145;49.798;-97.162;2022-10-31T05:17:17;0.40;;;0.20;;
67231;SDS011;54145;49.798;-97.162;2022-10-31T05:19:17;0.20;;;0.20;;
67231;SDS011;54145;49.798;-97.162;2022-10-31T05:21:18;0.20;;;0.20;;
67231;SDS011;54145;49.798;-97.162;2022-10-31T05:23:19;0.10;;;0.10;;
67231;SDS011;54145;49.798;-97.162;2022-10-31T05:25:20;0.20;;;0.20;;
67231;SDS011;54145;49.798;-97.162;2022-10-31T05:27:22;0.13;;;0.10;;
67231;SDS011;54145;49.798;-97.162;2022-10-31T05:29:23;0.20;;;0.20;;
67231;SDS011;54145;49.798;-97.162;2022-10-31T05:31:24;0.20;;;0.20;;
67231;SDS011;54145;49.798;-97.162;2022-10-31T05:33:25;0.88;;;0.25;;
67231;SDS011;54145;49.798;-97.162;2022-10-31T05:35:29;0.10;;;0.10;;
67231;SDS011;54145;49.798;-97.162;2022-10-31T05:37:30;0.10;;;0.10;;
67231;SDS011;54145;49.798;-97.162;2022-10-31T05:39:31;0.65;;;0.28;;
67231;SDS011;54145;49.798;-97.162;2022-10-31T05:41:32;0.13;;;0.13;;
67231;SDS011;54145;49.798;-97.162;2022-10-31T05:43:37;0.20;;;0.20;;
67231;SDS011;54145;49.798;-97.162;2022-10-31T05:45:38;0.00;;;0.00;;
67231;SDS011;54145;49.798;-97.162;2022-10-31T05:47:39;0.10;;;0.10;;
67231;SDS011;54145;49.798;-97.162;2022-10-31T05:49:40;0.23;;;0.23;;
67231;SDS011;54145;49.798;-97.162;2022-10-31T05:51:41;0.08;;;0.08;;
67231;SDS011;54145;49.798;-97.162;2022-10-31T05:53:42;0.35;;;0.20;;
67231;SDS011;54145;49.798;-97.162;2022-10-31T05:55:43;0.10;;;0.10;;
67231;SDS011;54145;49.798;-97.162;2022-10-31T05:57:44;0.20;;;0.20;;
67231;SDS011;54145;49.798;-97.162;2022-10-31T05:59:45;0.13;;;0.13;;
67231;SDS011;54145;49.798;-97.162;2022-10-31T06:01:45;0.20;;;0.20;;
67231;SDS011;54145;49.798;-97.162;2022-10-31T06:03:46;0.00;;;0.00;;
67231;SDS011;54145;49.798;-97.162;2022-10-31T06:05:47;0.25;;;0.20;;
67231;SDS011;54145;49.798;-97.162;2022-10-31T06:07:48;0.27;;;0.23;;
67231;SDS011;54145;49.798;-97.162;2022-10-31T06:09:49;0.10;;;0.10;;
67231;SDS011;54145;49.798;-97.162;2022-10-31T06:11:49;0.10;;;0.10;;
67231;SDS011;54145;49.798;-97.162;2022-10-31T06:13:50;0.10;;;0.10;;
67231;SDS011;54145;49.798;-97.162;2022-10-31T06:15:51;1.03;;;0.10;;
67231;SDS011;54145;49.798;-97.162;2022-10-31T06:17:59;0.10;;;0.10;;
67231;SDS011;54145;49.798;-97.162;2022-10-31T06:20:00;0.20;;;0.20;;
67231;SDS011;54145;49.798;-97.162;2022-10-31T06:22:01;0.20;;;0.20;;
67231;SDS011;54145;49.798;-97.162;2022-10-31T06:24:03;0.20;;;0.13;;
67231;SDS011;54145;49.798;-97.162;2022-10-31T06:26:04;0.17;;;0.10;;
67231;SDS011;54145;49.798;-97.162;2022-10-31T06:28:05;0.13;;;0.13;;
67231;SDS011;54145;49.798;-97.162;2022-10-31T06:30:06;0.10;;;0.10;;
67231;SDS011;54145;49.798;-97.162;2022-10-31T06:32:10;0.40;;;0.38;;
67231;SDS011;54145;49.798;-97.162;2022-10-31T06:34:11;0.20;;;0.20;;
67231;SDS011;54145;49.798;-97.162;2022-10-31T06:36:12;0.13;;;0.10;;
67231;SDS011;54145;49.798;-97.162;2022-10-31T06:38:14;0.10;;;0.10;;
67231;SDS011;54145;49.798;-97.162;2022-10-31T06:40:15;0.10;;;0.10;;
67231;SDS011;54145;49.798;-97.162;2022-10-31T06:42:16;0.00;;;0.00;;
67231;SDS011;54145;49.798;-97.162;2022-10-31T06:44:18;0.17;;;0.17;;
67231;SDS011;54145;49.798;-97.162;2022-10-31T06:46:21;0.10;;;0.10;;
67231;SDS011;54145;49.798;-97.162;2022-10-31T06:48:25;0.20;;;0.20;;
67231;SDS011;54145;49.798;-97.162;2022-10-31T06:50:26;0.13;;;0.13;;
67231;SDS011;54145;49.798;-97.162;2022-10-31T06:52:27;0.10;;;0.10;;
67231;SDS011;54145;49.798;-97.162;2022-10-31T06:54:30;0.60;;;0.20;;
67231;SDS011;54145;49.798;-97.162;2022-10-31T06:56:31;0.08;;;0.08;;
67231;SDS011;54145;49.798;-97.162;2022-10-31T06:58:32;0.13;;;0.13;;
67231;SDS011;54145;49.798;-97.162;2022-10-31T07:00:33;0.30;;;0.30;;
67231;SDS011;54145;49.798;-97.162;2022-10-31T07:02:34;0.10;;;0.10;;
67231;SDS011;54145;49.798;-97.162;2022-10-31T07:04:36;1.90;;;0.20;;
67231;SDS011;54145;49.798;-97.162;2022-10-31T07:06:37;0.05;;;0.03;;
67231;SDS011;54145;49.798;-97.162;2022-10-31T07:08:40;0.10;;;0.10;;
67231;SDS011;54145;49.798;-97.162;2022-10-31T07:10:43;0.10;;;0.10;;
67231;SDS011;54145;49.798;-97.162;2022-10-31T07:12:43;0.05;;;0.05;;
67231;SDS011;54145;49.798;-97.162;2022-10-31T07:14:44;0.10;;;0.10;;
67231;SDS011;54145;49.798;-97.162;2022-10-31T07:16:49;0.03;;;0.03;;
67231;SDS011;54145;49.798;-97.162;2022-10-31T07:18:50;0.10;;;0.10;;
67231;SDS011;54145;49.798;-97.162;2022-10-31T07:20:51;0.10;;;0.10;;
67231;SDS011;54145;49.798;-97.162;2022-10-31T07:22:53;0.10;;;0.10;;
67231;SDS011;54145;49.798;-97.162;2022-10-31T07:24:54;0.10;;;0.10;;
67231;SDS011;54145;49.798;-97.162;2022-10-31T07:26:55;0.10;;;0.10;;
67231;SDS011;54145;49.798;-97.162;2022-10-31T07:28:56;0.10;;;0.10;;
67231;SDS011;54145;49.798;-97.162;2022-10-31T07:30:57;0.13;;;0.13;;
67231;SDS011;54145;49.798;-97.162;2022-10-31T07:32:58;0.10;;;0.10;;
67231;SDS011;54145;49.798;-97.162;2022-10-31T07:34:59;0.10;;;0.10;;
67231;SDS011;54145;49.798;-97.162;2022-10-31T07:37:01;0.10;;;0.10;;
67231;SDS011;54145;49.798;-97.162;2022-10-31T07:39:04;0.05;;;0.05;;
67231;SDS011;54145;49.798;-97.162;2022-10-31T07:41:06;0.10;;;0.10;;
67231;SDS011;54145;49.798;-97.162;2022-10-31T07:43:07;0.10;;;0.10;;
67231;SDS011;54145;49.798;-97.162;2022-10-31T07:45:09;0.10;;;0.10;;
67231;SDS011;54145;49.798;-97.162;2022-10-31T07:47:10;0.10;;;0.10;;
67231;SDS011;54145;49.798;-97.162;2022-10-31T07:49:11;0.00;;;0.00;;
67231;SDS011;54145;49.798;-97.162;2022-10-31T07:51:15;0.13;;;0.13;;
67231;SDS011;54145;49.798;-97.162;2022-10-31T07:53:16;0.10;;;0.10;;
67231;SDS011;54145;49.798;-97.162;2022-10-31T07:55:17;0.10;;;0.10;;
67231;SDS011;54145;49.798;-97.162;2022-10-31T07:57:17;0.10;;;0.10;;
67231;SDS011;54145;49.798;-97.162;2022-10-31T07:59:18;0.03;;;0.03;;
67231;SDS011;54145;49.798;-97.162;2022-10-31T08:01:22;0.00;;;0.00;;
67231;SDS011;54145;49.798;-97.162;2022-10-31T08:03:24;0.10;;;0.10;;
67231;SDS011;54145;49.798;-97.162;2022-10-31T08:07:25;0.00;;;0.00;;
67231;SDS011;54145;49.798;-97.162;2022-10-31T08:09:28;0.17;;;0.10;;
67231;SDS011;54145;49.798;-97.162;2022-10-31T08:11:29;0.03;;;0.03;;
67231;SDS011;54145;49.798;-97.162;2022-10-31T08:13:29;0.10;;;0.10;;
67231;SDS011;54145;49.798;-97.162;2022-10-31T08:15:30;0.10;;;0.10;;
67231;SDS011;54145;49.798;-97.162;2022-10-31T08:17:37;0.00;;;0.00;;
67231;SDS011;54145;49.798;-97.162;2022-10-31T08:19:38;0.10;;;0.10;;
67231;SDS011;54145;49.798;-97.162;2022-10-31T08:21:42;0.00;;;0.00;;
67231;SDS011;54145;49.798;-97.162;2022-10-31T08:23:43;0.10;;;0.10;;
67231;SDS011;54145;49.798;-97.162;2022-10-31T08:25:44;0.10;;;0.10;;
67231;SDS011;54145;49.798;-97.162;2022-10-31T08:27:50;0.00;;;0.00;;
67231;SDS011;54145;49.798;-97.162;2022-10-31T08:29:52;0.03;;;0.03;;
67231;SDS011;54145;49.798;-97.162;2022-10-31T08:31:53;0.05;;;0.05;;
67231;SDS011;54145;49.798;-97.162;2022-10-31T08:33:53;0.10;;;0.10;;
67231;SDS011;54145;49.798;-97.162;2022-10-31T08:35:54;0.10;;;0.10;;
67231;SDS011;54145;49.798;-97.162;2022-10-31T08:37:56;0.20;;;0.10;;
67231;SDS011;54145;49.798;-97.162;2022-10-31T08:39:57;0.00;;;0.00;;
67231;SDS011;54145;49.798;-97.162;2022-10-31T08:41:58;0.03;;;0.03;;
67231;SDS011;54145;49.798;-97.162;2022-10-31T08:43:58;0.10;;;0.10;;
67231;SDS011;54145;49.798;-97.162;2022-10-31T08:45:59;0.10;;;0.10;;
67231;SDS011;54145;49.798;-97.162;2022-10-31T08:48:01;0.10;;;0.10;;
67231;SDS011;54145;49.798;-97.162;2022-10-31T08:50:03;0.10;;;0.10;;
67231;SDS011;54145;49.798;-97.162;2022-10-31T08:52:09;0.03;;;0.00;;
67231;SDS011;54145;49.798;-97.162;2022-10-31T08:54:10;0.05;;;0.05;;
67231;SDS011;54145;49.798;-97.162;2022-10-31T08:56:11;0.10;;;0.10;;
67231;SDS011;54145;49.798;-97.162;2022-10-31T08:58:13;0.00;;;0.00;;
67231;SDS011;54145;49.798;-97.162;2022-10-31T09:00:14;0.10;;;0.10;;
67231;SDS011;54145;49.798;-97.162;2022-10-31T09:02:15;0.10;;;0.10;;
67231;SDS011;54145;49.798;-97.162;2022-10-31T09:04:16;0.00;;;0.00;;
67231;SDS011;54145;49.798;-97.162;2022-10-31T09:06:17;0.20;;;0.20;;
67231;SDS011;54145;49.798;-97.162;2022-10-31T09:08:18;0.10;;;0.10;;
67231;SDS011;54145;49.798;-97.162;2022-10-31T09:10:18;0.10;;;0.10;;
67231;SDS011;54145;49.798;-97.162;2022-10-31T09:12:19;0.10;;;0.10;;
67231;SDS011;54145;49.798;-97.162;2022-10-31T09:14:20;0.10;;;0.10;;
67231;SDS011;54145;49.798;-97.162;2022-10-31T09:16:21;0.00;;;0.00;;
67231;SDS011;54145;49.798;-97.162;2022-10-31T09:18:22;0.00;;;0.00;;
67231;SDS011;54145;49.798;-97.162;2022-10-31T09:20:24;0.10;;;0.10;;
67231;SDS011;54145;49.798;-97.162;2022-10-31T09:22:24;0.00;;;0.00;;
67231;SDS011;54145;49.798;-97.162;2022-10-31T09:24:25;0.07;;;0.07;;
67231;SDS011;54145;49.798;-97.162;2022-10-31T09:26:26;0.10;;;0.10;;
67231;SDS011;54145;49.798;-97.162;2022-10-31T09:28:27;0.20;;;0.20;;
67231;SDS011;54145;49.798;-97.162;2022-10-31T09:30:29;0.10;;;0.10;;
67231;SDS011;54145;49.798;-97.162;2022-10-31T09:34:31;0.10;;;0.10;;
67231;SDS011;54145;49.798;-97.162;2022-10-31T09:36:38;0.10;;;0.10;;
67231;SDS011;54145;49.798;-97.162;2022-10-31T09:38:39;0.10;;;0.10;;
67231;SDS011;54145;49.798;-97.162;2022-10-31T09:40:47;0.00;;;0.00;;
67231;SDS011;54145;49.798;-97.162;2022-10-31T09:42:51;0.08;;;0.08;;
67231;SDS011;54145;49.798;-97.162;2022-10-31T09:46:59;0.10;;;0.10;;
67231;SDS011;54145;49.798;-97.162;2022-10-31T09:51:22;0.10;;;0.10;;
67231;SDS011;54145;49.798;-97.162;2022-10-31T09:53:32;0.10;;;0.10;;
67231;SDS011;54145;49.798;-97.162;2022-10-31T09:55:36;0.93;;;0.15;;
67231;SDS011;54145;49.798;-97.162;2022-10-31T09:57:39;0.10;;;0.10;;
67231;SDS011;54145;49.798;-97.162;2022-10-31T09:59:41;0.00;;;0.00;;
67231;SDS011;54145;49.798;-97.162;2022-10-31T10:01:49;0.00;;;0.00;;
67231;SDS011;54145;49.798;-97.162;2022-10-31T10:03:53;0.05;;;0.05;;
67231;SDS011;54145;49.798;-97.162;2022-10-31T10:05:57;0.10;;;0.10;;
67231;SDS011;54145;49.798;-97.162;2022-10-31T10:08:07;0.00;;;0.00;;
67231;SDS011;54145;49.798;-97.162;2022-10-31T10:10:17;0.10;;;0.10;;
67231;SDS011;54145;49.798;-97.162;2022-10-31T10:12:23;0.10;;;0.10;;
67231;SDS011;54145;49.798;-97.162;2022-10-31T10:23:11;0.00;;;0.00;;
67231;SDS011;54145;49.798;-97.162;2022-10-31T10:25:16;0.10;;;0.10;;
67231;SDS011;54145;49.798;-97.162;2022-10-31T10:31:36;0.10;;;0.10;;
67231;SDS011;54145;49.798;-97.162;2022-10-31T10:33:39;0.10;;;0.10;;
67231;SDS011;54145;49.798;-97.162;2022-10-31T10:35:43;0.10;;;0.10;;
67231;SDS011;54145;49.798;-97.162;2022-10-31T10:37:45;0.00;;;0.00;;
67231;SDS011;54145;49.798;-97.162;2022-10-31T10:39:48;0.03;;;0.00;;
67231;SDS011;54145;49.798;-97.162;2022-10-31T10:41:50;0.00;;;0.00;;
67231;SDS011;54145;49.798;-97.162;2022-10-31T10:44:10;0.10;;;0.10;;
67231;SDS011;54145;49.798;-97.162;2022-10-31T10:46:26;0.00;;;0.00;;
67231;SDS011;54145;49.798;-97.162;2022-10-31T10:50:50;0.10;;;0.10;;
67231;SDS011;54145;49.798;-97.162;2022-10-31T10:53:02;0.10;;;0.10;;
67231;SDS011;54145;49.798;-97.162;2022-10-31T10:55:14;0.00;;;0.00;;
67231;SDS011;54145;49.798;-97.162;2022-10-31T10:59:24;0.03;;;0.03;;
67231;SDS011;54145;49.798;-97.162;2022-10-31T11:01:25;0.08;;;0.05;;
67231;SDS011;54145;49.798;-97.162;2022-10-31T11:03:27;0.10;;;0.10;;
67231;SDS011;54145;49.798;-97.162;2022-10-31T11:07:47;0.03;;;0.03;;
67231;SDS011;54145;49.798;-97.162;2022-10-31T11:09:48;0.90;;;0.20;;
67231;SDS011;54145;49.798;-97.162;2022-10-31T11:11:49;1.47;;;0.20;;
67231;SDS011;54145;49.798;-97.162;2022-10-31T11:13:52;0.10;;;0.10;;
67231;SDS011;54145;49.798;-97.162;2022-10-31T11:17:59;0.22;;;0.20;;
67231;SDS011;54145;49.798;-97.162;2022-10-31T11:20:01;0.17;;;0.17;;
67231;SDS011;54145;49.798;-97.162;2022-10-31T11:22:24;0.35;;;0.20;;
67231;SDS011;54145;49.798;-97.162;2022-10-31T11:24:24;0.70;;;0.20;;
67231;SDS011;54145;49.798;-97.162;2022-10-31T11:26:28;0.25;;;0.15;;
67231;SDS011;54145;49.798;-97.162;2022-10-31T11:28:29;0.17;;;0.17;;
67231;SDS011;54145;49.798;-97.162;2022-10-31T11:30:35;0.28;;;0.28;;
67231;SDS011;54145;49.798;-97.162;2022-10-31T11:32:51;0.20;;;0.20;;
67231;SDS011;54145;49.798;-97.162;2022-10-31T11:34:53;0.22;;;0.15;;
67231;SDS011;54145;49.798;-97.162;2022-10-31T11:36:58;0.20;;;0.17;;
67231;SDS011;54145;49.798;-97.162;2022-10-31T11:39:02;0.20;;;0.20;;
67231;SDS011;54145;49.798;-97.162;2022-10-31T11:41:07;0.20;;;0.20;;
67231;SDS011;54145;49.798;-97.162;2022-10-31T11:43:12;0.20;;;0.10;;
67231;SDS011;54145;49.798;-97.162;2022-10-31T11:45:17;0.10;;;0.10;;
67231;SDS011;54145;49.798;-97.162;2022-10-31T11:47:28;0.75;;;0.30;;
67231;SDS011;54145;49.798;-97.162;2022-10-31T11:51:33;0.47;;;0.28;;
67231;SDS011;54145;49.798;-97.162;2022-10-31T11:53:35;0.20;;;0.20;;
67231;SDS011;54145;49.798;-97.162;2022-10-31T11:55:37;0.15;;;0.15;;
67231;SDS011;54145;49.798;-97.162;2022-10-31T11:57:44;0.10;;;0.10;;
67231;SDS011;54145;49.798;-97.162;2022-10-31T11:59:50;0.20;;;0.20;;
67231;SDS011;54145;49.798;-97.162;2022-10-31T12:01:52;0.75;;;0.28;;
67231;SDS011;54145;49.798;-97.162;2022-10-31T12:08:34;0.20;;;0.17;;
67231;SDS011;54145;49.798;-97.162;2022-10-31T12:10:41;0.10;;;0.10;;
67231;SDS011;54145;49.798;-97.162;2022-10-31T12:23:03;0.43;;;0.28;;
67231;SDS011;54145;49.798;-97.162;2022-10-31T12:25:17;0.30;;;0.30;;
67231;SDS011;54145;49.798;-97.162;2022-10-31T12:31:56;0.20;;;0.20;;
67231;SDS011;54145;49.798;-97.162;2022-10-31T12:47:07;0.47;;;0.30;;
67231;SDS011;54145;49.798;-97.162;2022-10-31T12:57:50;0.20;;;0.15;;
67231;SDS011;54145;49.798;-97.162;2022-10-31T12:59:56;1.10;;;0.30;;
67231;SDS011;54145;49.798;-97.162;2022-10-31T13:02:09;0.40;;;0.40;;
67231;SDS011;54145;49.798;-97.162;2022-10-31T13:06:22;0.20;;;0.20;;
67231;SDS011;54145;49.798;-97.162;2022-10-31T13:08:33;1.10;;;0.60;;
67231;SDS011;54145;49.798;-97.162;2022-10-31T13:12:39;0.85;;;0.35;;
67231;SDS011;54145;49.798;-97.162;2022-10-31T13:16:46;0.35;;;0.30;;
67231;SDS011;54145;49.798;-97.162;2022-10-31T13:18:50;0.28;;;0.28;;
67231;SDS011;54145;49.798;-97.162;2022-10-31T13:20:52;0.10;;;0.10;;
67231;SDS011;54145;49.798;-97.162;2022-10-31T13:32:04;0.20;;;0.20;;
67231;SDS011;54145;49.798;-97.162;2022-10-31T13:34:09;0.30;;;0.30;;
67231;SDS011;54145;49.798;-97.162;2022-10-31T13:43:11;0.20;;;0.20;;
67231;SDS011;54145;49.798;-97.162;2022-10-31T13:45:16;0.20;;;0.20;;
67231;SDS011;54145;49.798;-97.162;2022-10-31T13:47:24;0.30;;;0.30;;
67231;SDS011;54145;49.798;-97.162;2022-10-31T13:51:30;0.20;;;0.10;;
67231;SDS011;54145;49.798;-97.162;2022-10-31T13:53:37;0.22;;;0.22;;
67231;SDS011;54145;49.798;-97.162;2022-10-31T13:55:42;0.57;;;0.28;;
67231;SDS011;54145;49.798;-97.162;2022-10-31T13:57:44;0.38;;;0.32;;
67231;SDS011;54145;49.798;-97.162;2022-10-31T13:59:54;0.38;;;0.38;;
67231;SDS011;54145;49.798;-97.162;2022-10-31T14:01:57;0.20;;;0.20;;
67231;SDS011;54145;49.798;-97.162;2022-10-31T14:04:05;0.50;;;0.25;;
67231;SDS011;54145;49.798;-97.162;2022-10-31T14:06:07;0.68;;;0.30;;
67231;SDS011;54145;49.798;-97.162;2022-10-31T14:08:16;0.20;;;0.20;;
67231;SDS011;54145;49.798;-97.162;2022-10-31T14:10:26;0.20;;;0.20;;
67231;SDS011;54145;49.798;-97.162;2022-10-31T14:12:38;0.40;;;0.40;;
67231;SDS011;54145;49.798;-97.162;2022-10-31T14:14:43;0.20;;;0.20;;
67231;SDS011;54145;49.798;-97.162;2022-10-31T14:16:45;0.20;;;0.20;;